createdAt,value
2019-06-20T00:00:50.768Z,18.51
2019-06-20T00:03:20.628Z,18.42
2019-06-20T00:05:50.352Z,18.37
2019-06-20T00:08:19.697Z,18.38
2019-06-20T00:10:49.063Z,18.46
2019-06-20T00:13:19.009Z,18.42
2019-06-20T00:15:48.325Z,18.37
2019-06-20T00:18:17.887Z,18.24
2019-06-20T00:20:51.942Z,18.32
2019-06-20T00:23:25.669Z,18.27
2019-06-20T00:25:59.404Z,18.29
2019-06-20T00:28:34.474Z,18.27
2019-06-20T00:31:08.273Z,18.37
2019-06-20T00:33:41.402Z,18.41
2019-06-20T00:36:13.919Z,18.37
2019-06-20T00:39:00.613Z,18.31
2019-06-20T00:41:38.591Z,18.55
2019-06-20T00:44:13.914Z,18.68
2019-06-20T00:46:47.828Z,18.68
2019-06-20T00:49:21.411Z,18.60
2019-06-20T00:51:55.077Z,18.59
2019-06-20T00:54:50.330Z,18.51
2019-06-20T00:57:22.591Z,18.31
2019-06-20T00:59:55.685Z,18.15
2019-06-20T01:02:28.888Z,18.08
2019-06-20T01:05:01.813Z,17.97
2019-06-20T01:07:36.681Z,18.08
2019-06-20T01:10:12.046Z,18.11
2019-06-20T01:12:48.350Z,18.11
2019-06-20T01:15:24.125Z,18.18
2019-06-20T01:17:57.251Z,18.27
2019-06-20T01:20:37.932Z,18.22
2019-06-20T01:23:15.390Z,18.11
2019-06-20T01:25:51.059Z,18.18
2019-06-20T01:28:44.017Z,18.21
2019-06-20T01:31:18.790Z,18.14
2019-06-20T01:33:55.507Z,18.13
2019-06-20T01:39:49.677Z,17.85
2019-06-20T01:42:23.913Z,17.90
2019-06-20T01:45:00.906Z,17.81
2019-06-20T01:47:36.214Z,17.81
2019-06-20T01:50:08.253Z,17.67
2019-06-20T01:52:54.400Z,17.66
2019-06-20T01:55:28.205Z,17.61
2019-06-20T01:58:03.998Z,17.46
2019-06-20T02:00:51.852Z,17.34
2019-06-20T02:03:27.567Z,17.30
2019-06-20T02:06:01.832Z,17.20
2019-06-20T02:08:36.558Z,17.32
2019-06-20T02:11:12.494Z,17.15
2019-06-20T02:13:43.542Z,17.02
2019-06-20T02:16:17.326Z,16.86
2019-06-20T02:18:51.069Z,16.88
2019-06-20T02:21:25.433Z,17.01
2019-06-20T02:24:06.362Z,17.24
2019-06-20T02:26:35.706Z,17.39
2019-06-20T02:32:34.161Z,17.23
2019-06-20T02:35:03.605Z,17.22
2019-06-20T02:37:33.306Z,17.12
2019-06-20T02:40:02.679Z,17.06
2019-06-20T02:42:32.067Z,16.94
2019-06-20T02:45:01.498Z,16.87
2019-06-20T02:47:30.942Z,16.83
2019-06-20T02:50:00.372Z,16.96
2019-06-20T02:52:30.093Z,16.97
2019-06-20T02:54:59.490Z,16.98
2019-06-20T02:57:28.884Z,16.91
2019-06-20T02:59:58.243Z,16.95
2019-06-20T03:02:27.645Z,16.96
2019-06-20T03:04:57.123Z,17.03
2019-06-20T03:07:26.566Z,17.11
2019-06-20T03:09:56.338Z,17.11
2019-06-20T03:12:25.821Z,17.16
2019-06-20T03:14:55.619Z,17.15
2019-06-20T03:17:25.650Z,17.22
2019-06-20T03:19:55.066Z,17.24
2019-06-20T03:22:24.428Z,17.26
2019-06-20T03:24:55.118Z,17.34
2019-06-20T03:27:24.437Z,17.45
2019-06-20T03:29:54.385Z,17.47
2019-06-20T03:32:23.800Z,17.42
2019-06-20T03:34:53.192Z,17.50
2019-06-20T03:37:22.543Z,17.57
2019-06-20T03:39:52.391Z,17.63
2019-06-20T03:42:22.316Z,17.67
2019-06-20T03:45:01.685Z,17.74
2019-06-20T03:47:22.889Z,17.71
2019-06-20T03:49:52.212Z,17.70
2019-06-20T03:52:21.548Z,17.66
2019-06-20T03:54:51.562Z,17.64
2019-06-20T03:57:21.025Z,17.68
2019-06-20T03:59:50.406Z,17.46
2019-06-20T04:02:19.816Z,17.70
2019-06-20T04:04:50.578Z,17.67
2019-06-20T04:07:19.983Z,17.84
2019-06-20T04:09:49.356Z,17.95
2019-06-20T04:12:19.482Z,17.97
2019-06-20T04:14:49.349Z,17.98
2019-06-20T04:17:19.169Z,18.04
2019-06-20T04:19:48.465Z,18.03
2019-06-20T04:22:17.912Z,18.09
2019-06-20T04:24:47.573Z,18.10
2019-06-20T04:27:17.006Z,17.85
2019-06-20T04:29:46.744Z,18.27
2019-06-20T04:32:17.244Z,18.29
2019-06-20T04:34:46.685Z,18.36
2019-06-20T04:37:16.155Z,18.42
2019-06-20T04:39:45.513Z,18.40
2019-06-20T04:42:18.616Z,18.31
2019-06-20T04:44:47.328Z,18.56
2019-06-20T04:47:19.008Z,18.53
2019-06-20T04:49:48.373Z,18.75
2019-06-20T04:52:17.915Z,18.91
2019-06-20T04:54:47.809Z,18.96
2019-06-20T04:57:17.376Z,18.92
2019-06-20T04:59:48.414Z,18.99
2019-06-20T05:02:19.809Z,19.01
2019-06-20T05:04:49.532Z,18.85
2019-06-20T05:07:21.107Z,18.66
2019-06-20T05:09:50.525Z,18.69
2019-06-20T05:12:20.459Z,18.61
2019-06-20T05:14:50.898Z,18.55
2019-06-20T05:17:30.981Z,18.52
2019-06-20T05:20:03.173Z,18.43
2019-06-20T05:26:02.548Z,18.50
2019-06-20T05:28:45.380Z,18.59
2019-06-20T05:34:21.356Z,18.82
2019-06-20T05:36:50.825Z,19.10
2019-06-20T05:39:20.738Z,19.24
2019-06-20T05:41:50.420Z,19.50
2019-06-20T05:44:22.745Z,19.50
2019-06-20T05:47:08.533Z,19.54
2019-06-20T05:49:24.952Z,19.54
2019-06-20T05:51:54.865Z,19.83
2019-06-20T05:54:27.073Z,19.78
2019-06-20T05:56:56.978Z,19.78
2019-06-20T05:59:48.653Z,19.88
2019-06-20T06:02:18.839Z,19.88
2019-06-20T06:04:50.853Z,20.12
2019-06-20T06:11:03.440Z,19.91
2019-06-20T06:13:44.712Z,19.59
2019-06-20T06:16:26.198Z,19.72
2019-06-20T06:18:58.363Z,19.72
2019-06-20T06:21:28.280Z,19.35
2019-06-20T06:24:00.516Z,19.35
2019-06-20T06:26:29.912Z,19.42
2019-06-20T06:28:59.194Z,19.59
2019-06-20T06:31:28.436Z,19.77
2019-06-20T06:33:57.685Z,19.92
2019-06-20T06:36:27.251Z,19.83
2019-06-20T06:38:56.569Z,19.85
2019-06-20T06:41:25.774Z,19.99
2019-06-20T06:43:55.331Z,20.22
2019-06-20T06:46:24.594Z,20.46
2019-06-20T06:48:53.860Z,20.71
2019-06-20T06:51:23.157Z,20.76
2019-06-20T06:53:52.861Z,20.58
2019-06-20T06:56:22.148Z,20.60
2019-06-20T06:58:51.436Z,20.57
2019-06-20T07:01:20.769Z,20.39
2019-06-20T07:03:50.046Z,20.71
2019-06-20T07:06:19.361Z,21.03
2019-06-20T07:08:48.721Z,20.95
2019-06-20T07:11:17.974Z,20.94
2019-06-20T07:13:47.210Z,20.74
2019-06-20T07:16:16.495Z,21.19
2019-06-20T07:18:45.694Z,21.41
2019-06-20T07:21:14.956Z,21.26
2019-06-20T07:23:44.265Z,21.06
2019-06-20T07:26:13.561Z,20.85
2019-06-20T07:28:42.777Z,20.87
2019-06-20T07:31:12.051Z,20.44
2019-06-20T07:33:41.291Z,20.51
2019-06-20T07:36:10.574Z,20.51
2019-06-20T07:38:39.788Z,20.67
2019-06-20T07:41:09.740Z,20.72
2019-06-20T07:43:39.026Z,20.81
2019-06-20T07:46:08.305Z,20.71
2019-06-20T07:48:37.566Z,20.72
2019-06-20T07:51:06.815Z,20.72
2019-06-20T07:53:36.048Z,21.00
2019-06-20T07:56:05.265Z,20.93
2019-06-20T07:58:34.555Z,20.94
2019-06-20T08:01:04.889Z,21.30
2019-06-20T08:03:37.738Z,21.14
2019-06-20T08:06:07.103Z,21.32
2019-06-20T08:44:37.718Z,22.40
2019-06-20T08:47:06.937Z,22.67
2019-06-20T08:49:36.237Z,22.58
2019-06-20T08:52:05.965Z,22.49
2019-06-20T08:54:35.271Z,22.30
2019-06-20T08:57:06.918Z,22.23
2019-06-20T08:59:36.298Z,22.51
2019-06-20T09:04:35.451Z,23.13
2019-06-20T09:09:34.861Z,23.50
2019-06-20T09:12:05.107Z,23.37
2019-06-20T09:14:34.906Z,23.58
2019-06-20T09:17:04.429Z,23.62
2019-06-20T09:19:36.591Z,23.88
2019-06-20T09:22:06.093Z,24.11
2019-06-20T09:24:35.517Z,24.17
2019-06-20T09:27:04.996Z,24.31
2019-06-20T09:29:42.056Z,24.11
2019-06-20T09:32:12.792Z,24.27
2019-06-20T09:34:42.329Z,23.69
2019-06-20T09:37:15.976Z,23.41
2019-06-20T09:39:47.134Z,23.92
2019-06-20T09:42:16.962Z,24.28
2019-06-20T09:44:58.736Z,23.87
2019-06-20T09:47:28.185Z,23.61
2019-06-20T09:49:59.042Z,23.66
2019-06-20T09:52:28.917Z,23.61
2019-06-20T09:55:00.574Z,23.23
2019-06-20T09:57:29.995Z,24.08
2019-06-20T10:00:09.676Z,24.40
2019-06-20T10:02:30.890Z,24.60
2019-06-20T10:05:00.279Z,24.30
2019-06-20T10:07:30.049Z,24.23
2019-06-20T10:10:01.676Z,23.97
2019-06-20T10:12:31.100Z,23.84
2019-06-20T10:15:00.936Z,24.18
2019-06-20T10:17:30.254Z,24.92
2019-06-20T10:20:00.870Z,24.79
2019-06-20T10:22:30.278Z,24.57
2019-06-20T10:28:28.663Z,24.14
2019-06-20T10:30:58.507Z,24.56
2019-06-20T10:33:27.903Z,24.84
2019-06-20T10:35:57.689Z,25.26
2019-06-20T10:38:27.467Z,25.68
2019-06-20T10:40:59.894Z,25.11
2019-06-20T10:43:27.701Z,24.47
2019-06-20T10:45:57.274Z,24.35
2019-06-20T10:48:26.576Z,24.38
2019-06-20T10:50:57.765Z,24.01
2019-06-20T10:53:27.055Z,23.84
2019-06-20T10:55:56.328Z,24.32
2019-06-20T10:58:25.660Z,24.20
2019-06-20T11:00:55.203Z,24.39
2019-06-20T11:03:24.412Z,24.13
2019-06-20T11:05:53.647Z,24.25
2019-06-20T11:08:23.153Z,24.20
2019-06-20T11:10:52.454Z,24.14
2019-06-20T11:13:21.688Z,24.20
2019-06-20T11:15:50.957Z,23.83
2019-06-20T11:18:20.204Z,24.02
2019-06-20T11:20:49.471Z,24.05
2019-06-20T11:23:18.703Z,24.18
2019-06-20T11:25:48.392Z,24.24
2019-06-20T11:28:17.708Z,24.25
2019-06-20T11:30:58.136Z,24.54
2019-06-20T11:33:17.959Z,24.19
2019-06-20T11:35:48.002Z,24.50
2019-06-20T11:38:17.262Z,24.73
2019-06-20T11:40:48.119Z,25.13
2019-06-20T11:43:17.453Z,25.40
2019-06-20T11:45:47.228Z,24.88
2019-06-20T11:48:16.516Z,24.74
2019-06-20T11:50:46.640Z,25.62
2019-06-20T11:53:16.158Z,25.43
2019-06-20T11:55:45.420Z,25.45
2019-06-20T11:58:14.726Z,24.98
2019-06-20T12:00:44.074Z,24.11
2019-06-20T12:03:13.370Z,23.71
2019-06-20T12:05:43.259Z,23.45
2019-06-20T12:08:12.883Z,23.11
2019-06-20T12:10:43.147Z,23.00
2019-06-20T12:13:12.456Z,22.79
2019-06-20T12:15:42.800Z,22.17
2019-06-20T12:18:12.259Z,21.98
2019-06-20T12:20:42.843Z,21.84
2019-06-20T12:23:12.362Z,21.65
2019-06-20T12:25:42.663Z,21.49
2019-06-20T12:28:12.431Z,21.57
2019-06-20T12:30:43.483Z,21.92
2019-06-20T12:33:12.857Z,21.98
2019-06-20T12:35:42.779Z,22.09
2019-06-20T12:38:15.060Z,22.19
2019-06-20T12:40:44.097Z,21.94
2019-06-20T12:43:13.857Z,21.46
2019-06-20T12:45:43.151Z,19.09
2019-06-20T12:48:12.426Z,17.87
2019-06-20T12:50:42.983Z,16.65
2019-06-20T12:53:12.525Z,17.03
2019-06-20T12:55:42.455Z,17.30
2019-06-20T12:58:11.907Z,17.55
2019-06-20T13:00:42.998Z,17.83
2019-06-20T13:03:12.275Z,17.91
2019-06-20T13:05:43.269Z,18.18
2019-06-20T13:08:13.727Z,18.19
2019-06-20T13:10:44.161Z,18.28
2019-06-20T13:13:13.511Z,18.51
2019-06-20T13:15:42.761Z,18.48
2019-06-20T13:18:14.389Z,18.45
2019-06-20T13:20:44.227Z,18.46
2019-06-20T13:23:13.893Z,18.49
2019-06-20T13:25:44.464Z,18.50
2019-06-20T13:28:14.262Z,18.55
2019-06-20T13:30:47.386Z,18.66
2019-06-20T13:33:15.052Z,18.71
2019-06-20T13:35:45.374Z,18.70
2019-06-20T13:38:14.779Z,18.81
2019-06-20T13:40:45.394Z,18.90
2019-06-20T13:43:14.965Z,19.06
2019-06-20T13:45:44.840Z,19.07
2019-06-20T13:48:15.287Z,19.02
2019-06-20T13:50:45.344Z,19.14
2019-06-20T13:53:14.723Z,19.14
2019-06-20T13:55:45.738Z,19.23
2019-06-20T13:58:23.496Z,19.53
2019-06-20T14:00:57.313Z,19.67
2019-06-20T14:03:33.187Z,19.65
2019-06-20T14:06:15.132Z,19.75
2019-06-20T14:08:50.312Z,19.75
2019-06-20T14:11:21.354Z,19.56
2019-06-20T14:13:54.457Z,19.42
2019-06-20T14:16:28.563Z,19.46
2019-06-20T14:19:08.434Z,19.13
2019-06-20T14:21:42.523Z,18.93
2019-06-20T14:24:20.240Z,18.75
2019-06-20T14:26:56.118Z,18.70
2019-06-20T14:29:32.767Z,18.36
2019-06-20T14:32:18.795Z,18.29
2019-06-20T14:34:43.661Z,18.37
2019-06-20T14:37:19.713Z,18.49
2019-06-20T14:39:51.052Z,18.70
2019-06-20T14:42:26.701Z,18.88
2019-06-20T14:45:00.692Z,19.11
2019-06-20T14:47:31.671Z,19.38
2019-06-20T14:50:04.111Z,19.65
2019-06-20T14:52:39.613Z,19.77
2019-06-20T14:55:15.199Z,19.83
2019-06-20T14:57:48.564Z,19.85
2019-06-20T15:00:25.421Z,19.74
2019-06-20T15:02:58.660Z,19.70
2019-06-20T15:05:34.727Z,19.44
2019-06-20T15:08:07.613Z,19.25
2019-06-20T15:11:04.087Z,19.39
2019-06-20T15:13:35.846Z,19.21
2019-06-20T15:16:06.426Z,19.25
2019-06-20T15:18:41.200Z,19.19
2019-06-20T15:21:12.963Z,19.14
2019-06-20T15:23:43.289Z,19.15
2019-06-20T15:26:17.342Z,19.18
2019-06-20T15:28:55.133Z,19.29
2019-06-20T15:31:35.716Z,19.28
2019-06-20T15:34:08.713Z,19.14
2019-06-20T15:36:42.020Z,19.25
2019-06-20T15:39:18.619Z,19.45
2019-06-20T15:41:50.060Z,19.41
2019-06-20T15:44:23.623Z,19.65
2019-06-20T15:46:53.359Z,19.73
2019-06-20T15:49:28.762Z,19.89
2019-06-20T15:51:59.811Z,20.04
2019-06-20T15:54:33.404Z,19.93
2019-06-20T15:57:06.586Z,19.91
2019-06-20T15:59:42.103Z,19.96
2019-06-20T16:02:14.294Z,20.13
2019-06-20T16:04:46.587Z,20.11
2019-06-20T16:07:17.616Z,20.28
2019-06-20T16:09:50.268Z,20.79
2019-06-20T16:12:22.642Z,20.79
2019-06-20T16:14:55.458Z,21.02
2019-06-20T16:17:28.088Z,20.97
2019-06-20T16:20:05.762Z,20.98
2019-06-20T16:22:37.421Z,20.68
2019-06-20T16:25:09.462Z,21.04
2019-06-20T16:27:42.009Z,21.39
2019-06-20T16:30:22.698Z,21.39
2019-06-20T16:32:55.367Z,21.16
2019-06-20T16:35:28.299Z,20.91
2019-06-20T16:38:00.651Z,20.58
2019-06-20T16:40:44.181Z,20.58
2019-06-20T16:43:16.335Z,20.73
2019-06-20T16:45:46.783Z,20.94
2019-06-20T16:48:21.653Z,21.09
2019-06-20T16:51:08.171Z,21.19
2019-06-20T16:53:52.617Z,21.81
2019-06-20T16:59:46.679Z,22.69
2019-06-20T17:02:30.895Z,22.46
2019-06-20T17:05:04.568Z,22.52
2019-06-20T17:13:25.383Z,23.63
2019-06-20T17:15:54.822Z,23.32
2019-06-20T17:18:25.793Z,23.06
2019-06-20T17:20:56.678Z,22.71
2019-06-20T17:31:23.591Z,21.15
2019-06-20T17:40:02.829Z,20.60
2019-06-20T17:42:38.418Z,20.62
2019-06-20T17:45:10.096Z,20.60
2019-06-20T17:47:40.846Z,20.62
2019-06-20T17:50:11.005Z,20.58
2019-06-20T17:52:51.781Z,20.66
2019-06-20T17:55:22.489Z,20.66
2019-06-20T17:57:55.912Z,20.52
2019-06-20T18:00:26.572Z,20.55
2019-06-20T18:05:37.248Z,20.47
2019-06-20T18:08:15.098Z,20.45
2019-06-20T18:22:14.433Z,21.48
2019-06-20T18:24:44.304Z,21.83
2019-06-20T18:27:14.446Z,22.08
2019-06-20T18:29:47.991Z,22.34
2019-06-20T18:32:17.523Z,22.69
2019-06-20T18:35:05.289Z,22.50
2019-06-20T18:40:03.075Z,21.32
2019-06-20T19:52:06.325Z,18.45
2019-06-20T19:54:36.130Z,18.48
2019-06-20T20:00:46.305Z,18.53
2019-06-20T20:03:15.955Z,18.42
2019-06-20T20:05:45.676Z,18.29
2019-06-20T20:08:20.170Z,18.21
2019-06-20T20:16:12.698Z,18.00
2019-06-20T20:21:12.231Z,17.88
2019-06-20T20:23:41.723Z,17.93
2019-06-20T20:26:11.286Z,17.94
2019-06-20T20:28:40.530Z,17.86
2019-06-20T20:31:09.938Z,17.87
2019-06-20T20:33:41.926Z,17.88
2019-06-20T20:36:23.923Z,17.88
2019-06-20T20:38:42.858Z,17.80
2019-06-20T20:41:12.583Z,17.71
2019-06-20T20:43:42.313Z,17.60
2019-06-20T20:46:11.627Z,17.50
2019-06-20T20:48:43.265Z,17.39
2019-06-20T20:51:13.139Z,17.34
2019-06-20T20:53:45.337Z,17.30
2019-06-20T20:56:20.024Z,16.95
2019-06-20T20:58:49.681Z,17.13
2019-06-20T21:01:28.921Z,16.99
2019-06-20T21:03:58.867Z,16.94
2019-06-20T21:06:28.365Z,16.74
2019-06-20T21:08:57.746Z,16.73
2019-06-20T21:11:27.531Z,16.71
2019-06-20T21:13:56.888Z,16.59
2019-06-20T21:16:27.375Z,16.65
2019-06-20T21:18:57.181Z,16.58
2019-06-20T21:21:26.832Z,16.68
2019-06-20T21:23:56.462Z,16.66
2019-06-20T21:26:26.145Z,16.59
2019-06-20T21:28:55.859Z,16.64
2019-06-20T21:31:25.560Z,16.68
2019-06-20T21:33:54.818Z,16.73
2019-06-20T21:36:24.341Z,16.68
2019-06-20T21:38:55.596Z,16.71
2019-06-20T21:41:25.369Z,16.71
2019-06-20T21:43:54.713Z,16.60
2019-06-20T21:46:24.080Z,16.60
2019-06-20T21:48:53.381Z,16.54
2019-06-20T21:51:23.078Z,16.44
2019-06-20T21:53:52.648Z,16.41
2019-06-20T21:56:21.947Z,16.32
2019-06-20T21:58:51.295Z,16.32
2019-06-20T22:01:20.749Z,16.37
2019-06-20T22:03:50.111Z,16.30
2019-06-20T22:06:23.721Z,16.22
2019-06-20T22:08:50.417Z,16.21
2019-06-20T22:11:19.685Z,16.04
2019-06-20T22:13:48.924Z,16.10
2019-06-20T22:16:18.473Z,15.98
2019-06-20T22:18:47.730Z,15.92
2019-06-20T22:21:16.969Z,15.83
2019-06-20T22:23:49.149Z,15.87
2019-06-20T22:26:18.436Z,15.57
2019-06-20T22:28:47.719Z,15.80
2019-06-20T22:31:17.009Z,16.15
2019-06-20T22:33:46.278Z,16.20
2019-06-20T22:36:15.604Z,16.21
2019-06-20T22:38:45.354Z,16.27
2019-06-20T22:41:14.572Z,16.37
2019-06-20T22:43:43.900Z,16.39
2019-06-20T22:46:13.414Z,16.29
2019-06-20T22:48:42.776Z,16.28
2019-06-20T22:51:13.823Z,16.29
2019-06-20T22:53:43.628Z,16.33
2019-06-20T22:56:12.852Z,16.35
2019-06-20T22:58:42.201Z,16.28
2019-06-20T23:01:11.443Z,16.23
2019-06-20T23:03:40.807Z,16.29
2019-06-20T23:06:10.049Z,16.45
2019-06-20T23:08:39.322Z,16.50
2019-06-20T23:11:08.642Z,16.53
2019-06-20T23:13:38.181Z,16.54
2019-06-20T23:16:07.397Z,16.44
2019-06-20T23:18:36.663Z,16.48
2019-06-20T23:21:05.954Z,16.44
2019-06-20T23:23:35.231Z,16.44
2019-06-20T23:26:06.162Z,16.43
2019-06-20T23:28:35.443Z,16.35
2019-06-20T23:31:04.693Z,16.36
2019-06-20T23:33:34.018Z,16.28
2019-06-20T23:36:03.278Z,16.20
2019-06-20T23:38:32.538Z,16.19
2019-06-20T23:41:01.855Z,16.15
2019-06-20T23:43:31.107Z,16.15
2019-06-20T23:46:00.355Z,16.10
2019-06-20T23:48:29.876Z,16.02
2019-06-20T23:50:59.754Z,16.02
2019-06-20T23:53:29.036Z,15.97
2019-06-20T23:55:58.640Z,15.90
2019-06-20T23:58:27.909Z,15.92
